createdAt,value
2019-03-17T00:00:13.032Z,912.12
2019-03-17T00:01:13.041Z,912.17
2019-03-17T00:02:13.003Z,912.15
2019-03-17T00:03:12.954Z,912.18
2019-03-17T00:04:12.953Z,912.13
2019-03-17T00:05:12.872Z,912.17
2019-03-17T00:06:12.853Z,912.18
2019-03-17T00:07:12.825Z,912.22
2019-03-17T00:08:12.780Z,912.24
2019-03-17T00:09:12.785Z,912.27
2019-03-17T00:10:12.716Z,912.29
2019-03-17T00:11:13.025Z,912.30
2019-03-17T00:12:12.663Z,912.36
2019-03-17T00:13:12.625Z,912.38
2019-03-17T00:14:12.604Z,912.43
2019-03-17T00:15:12.563Z,912.45
2019-03-17T00:16:12.511Z,912.46
2019-03-17T00:17:12.495Z,912.48
2019-03-17T00:18:13.108Z,912.50
2019-03-17T00:19:12.471Z,912.49
2019-03-17T00:20:12.434Z,912.47
2019-03-17T00:21:12.367Z,912.50
2019-03-17T00:22:12.383Z,912.50
2019-03-17T00:23:12.529Z,912.49
2019-03-17T00:24:12.296Z,912.49
2019-03-17T00:25:12.253Z,912.51
2019-03-17T00:26:12.235Z,912.53
2019-03-17T00:27:12.166Z,912.49
2019-03-17T00:28:12.241Z,912.47
2019-03-17T00:29:12.305Z,912.48
2019-03-17T00:30:12.157Z,912.47
2019-03-17T00:31:23.251Z,912.45
2019-03-17T00:32:12.004Z,912.48
2019-03-17T00:33:12.001Z,912.49
2019-03-17T00:34:12.009Z,912.51
2019-03-17T00:35:11.937Z,912.57
2019-03-17T00:36:11.949Z,912.57
2019-03-17T00:37:11.903Z,912.59
2019-03-17T00:38:11.845Z,912.57
2019-03-17T00:39:12.002Z,912.55
2019-03-17T00:40:11.795Z,912.55
2019-03-17T00:41:11.707Z,912.50
2019-03-17T00:42:11.749Z,912.48
2019-03-17T00:43:11.661Z,912.50
2019-03-17T00:44:11.677Z,912.55
2019-03-17T00:45:12.042Z,912.51
2019-03-17T00:46:11.588Z,912.56
2019-03-17T00:47:11.582Z,912.57
2019-03-17T00:48:11.501Z,912.61
2019-03-17T00:49:11.487Z,912.60
2019-03-17T00:50:11.440Z,912.65
2019-03-17T00:51:11.804Z,912.66
2019-03-17T00:52:11.367Z,912.68
2019-03-17T00:53:11.353Z,912.64
2019-03-17T00:54:11.322Z,912.70
2019-03-17T00:55:11.298Z,912.66
2019-03-17T00:56:11.360Z,912.66
2019-03-17T00:57:11.292Z,912.71
2019-03-17T00:58:11.226Z,912.69
2019-03-17T00:59:11.182Z,912.71
2019-03-17T01:00:11.121Z,912.72
2019-03-17T01:01:11.144Z,912.75
2019-03-17T01:02:11.090Z,912.71
2019-03-17T01:03:11.015Z,912.77
2019-03-17T01:04:10.992Z,912.79
2019-03-17T01:05:10.999Z,912.81
2019-03-17T01:06:10.916Z,912.84
2019-03-17T01:07:10.975Z,912.81
2019-03-17T01:08:11.057Z,912.85
2019-03-17T01:09:10.823Z,912.82
2019-03-17T01:10:10.797Z,912.86
2019-03-17T01:11:10.757Z,912.84
2019-03-17T01:12:10.883Z,912.85
2019-03-17T01:13:10.702Z,912.87
2019-03-17T01:14:10.632Z,912.87
2019-03-17T01:15:10.668Z,912.86
2019-03-17T01:16:10.600Z,912.83
2019-03-17T01:17:10.602Z,912.78
2019-03-17T01:18:10.749Z,912.72
2019-03-17T01:19:10.527Z,912.66
2019-03-17T01:20:10.450Z,912.65
2019-03-17T01:21:10.427Z,912.60
2019-03-17T01:22:10.379Z,912.61
2019-03-17T01:23:10.347Z,912.60
2019-03-17T01:24:10.480Z,912.65
2019-03-17T01:25:10.257Z,912.63
2019-03-17T01:26:10.264Z,912.67
2019-03-17T01:27:10.226Z,912.64
2019-03-17T01:28:10.206Z,912.64
2019-03-17T01:29:10.168Z,912.63
2019-03-17T01:30:10.114Z,912.61
2019-03-17T01:31:10.093Z,912.63
2019-03-17T01:32:10.059Z,912.67
2019-03-17T01:33:10.022Z,912.67
2019-03-17T01:34:09.965Z,912.69
2019-03-17T01:35:10.252Z,912.71
2019-03-17T01:36:09.916Z,912.73
2019-03-17T01:37:09.879Z,912.74
2019-03-17T01:38:09.876Z,912.75
2019-03-17T01:39:09.981Z,912.76
2019-03-17T01:40:09.784Z,912.74
2019-03-17T01:41:09.774Z,912.79
2019-03-17T01:42:09.729Z,912.78
2019-03-17T01:43:09.714Z,912.78
2019-03-17T01:44:09.661Z,912.77
2019-03-17T01:45:09.893Z,912.85
2019-03-17T01:46:09.589Z,912.87
2019-03-17T01:47:09.555Z,912.86
2019-03-17T01:48:09.543Z,912.85
2019-03-17T01:49:09.516Z,912.84
2019-03-17T01:50:09.448Z,912.78
2019-03-17T01:51:09.420Z,912.80
2019-03-17T01:52:09.393Z,912.79
2019-03-17T01:53:09.370Z,912.77
2019-03-17T01:54:09.338Z,912.76
2019-03-17T01:55:09.314Z,912.73
2019-03-17T01:56:09.466Z,912.76
2019-03-17T01:57:09.233Z,912.76
2019-03-17T01:58:09.183Z,912.76
2019-03-17T01:59:09.168Z,912.73
2019-03-17T02:00:09.140Z,912.70
2019-03-17T02:02:09.089Z,912.71
2019-03-17T02:03:09.030Z,912.64
2019-03-17T02:04:09.020Z,912.66
2019-03-17T02:05:20.890Z,912.64
2019-03-17T02:06:09.233Z,912.66
2019-03-17T02:07:08.925Z,912.69
2019-03-17T02:08:08.861Z,912.71
2019-03-17T02:09:08.839Z,912.71
2019-03-17T02:10:08.809Z,912.73
2019-03-17T02:11:08.779Z,912.71
2019-03-17T02:12:08.896Z,912.67
2019-03-17T02:13:08.705Z,912.72
2019-03-17T02:14:08.665Z,912.72
2019-03-17T02:15:08.645Z,912.71
2019-03-17T02:16:08.621Z,912.76
2019-03-17T02:17:08.558Z,912.81
2019-03-17T02:18:08.546Z,912.78
2019-03-17T02:19:08.527Z,912.79
2019-03-17T02:20:08.473Z,912.80
2019-03-17T02:21:08.467Z,912.80
2019-03-17T02:22:08.406Z,912.85
2019-03-17T02:23:08.373Z,912.86
2019-03-17T02:24:08.372Z,912.85
2019-03-17T02:25:08.312Z,912.85
2019-03-17T02:26:08.269Z,912.87
2019-03-17T02:27:08.243Z,912.87
2019-03-17T02:28:08.345Z,912.91
2019-03-17T02:29:08.202Z,912.90
2019-03-17T02:30:08.162Z,912.86
2019-03-17T02:31:08.129Z,912.83
2019-03-17T02:32:08.083Z,912.82
2019-03-17T02:33:08.034Z,912.80
2019-03-17T02:34:11.497Z,912.82
2019-03-17T02:35:07.982Z,912.80
2019-03-17T02:36:07.958Z,912.83
2019-03-17T02:37:07.929Z,912.85
2019-03-17T02:38:07.877Z,912.82
2019-03-17T02:39:07.853Z,912.83
2019-03-17T02:40:07.838Z,912.77
2019-03-17T02:41:07.765Z,912.73
2019-03-17T02:42:07.766Z,912.69
2019-03-17T02:43:07.718Z,912.72
2019-03-17T02:44:07.668Z,912.71
2019-03-17T02:45:07.680Z,912.67
2019-03-17T02:46:07.669Z,912.67
2019-03-17T02:47:07.626Z,912.66
2019-03-17T02:48:07.744Z,912.64
2019-03-17T02:49:07.514Z,912.65
2019-03-17T02:50:07.798Z,912.62
2019-03-17T02:51:07.462Z,912.61
2019-03-17T02:52:07.424Z,912.57
2019-03-17T02:53:07.442Z,912.58
2019-03-17T02:54:07.376Z,912.56
2019-03-17T02:55:07.423Z,912.56
2019-03-17T02:56:07.387Z,912.51
2019-03-17T02:57:07.267Z,912.51
2019-03-17T02:58:07.215Z,912.46
2019-03-17T02:59:07.194Z,912.44
2019-03-17T03:00:07.510Z,912.45
2019-03-17T03:01:07.139Z,912.43
2019-03-17T03:02:07.101Z,912.45
2019-03-17T03:03:07.064Z,912.41
2019-03-17T03:04:07.030Z,912.44
2019-03-17T03:05:07.010Z,912.41
2019-03-17T03:06:06.966Z,912.43
2019-03-17T03:07:06.926Z,912.45
2019-03-17T03:10:32.869Z,912.39
2019-03-17T03:10:53.168Z,912.39
2019-03-17T03:11:53.151Z,912.41
2019-03-17T03:12:53.101Z,912.44
2019-03-17T03:13:53.067Z,912.42
2019-03-17T03:14:53.049Z,912.41
2019-03-17T03:15:53.265Z,912.42
2019-03-17T03:16:52.969Z,912.45
2019-03-17T03:17:52.940Z,912.49
2019-03-17T03:18:52.935Z,912.49
2019-03-17T03:19:52.882Z,912.50
2019-03-17T03:20:52.843Z,912.48
2019-03-17T03:21:53.012Z,912.47
2019-03-17T03:22:52.779Z,912.53
2019-03-17T03:23:52.815Z,912.49
2019-03-17T03:24:52.719Z,912.49
2019-03-17T03:25:52.674Z,912.51
2019-03-17T03:26:52.657Z,912.53
2019-03-17T03:27:52.601Z,912.49
2019-03-17T03:28:52.577Z,912.43
2019-03-17T03:29:52.545Z,912.42
2019-03-17T03:30:52.521Z,912.45
2019-03-17T03:31:52.495Z,912.39
2019-03-17T03:32:52.429Z,912.38
2019-03-17T03:33:52.448Z,912.37
2019-03-17T03:34:52.367Z,912.34
2019-03-17T03:35:52.352Z,912.34
2019-03-17T03:36:52.442Z,912.36
2019-03-17T03:37:52.262Z,912.34
2019-03-17T03:38:52.445Z,912.35
2019-03-17T03:39:52.227Z,912.33
2019-03-17T03:40:52.167Z,912.31
2019-03-17T03:41:52.139Z,912.33
2019-03-17T03:42:52.099Z,912.28
2019-03-17T03:43:52.076Z,912.22
2019-03-17T03:44:52.150Z,912.19
2019-03-17T03:45:52.022Z,912.16
2019-03-17T03:46:51.972Z,912.15
2019-03-17T03:47:51.935Z,912.10
2019-03-17T03:48:51.898Z,912.06
2019-03-17T03:49:52.043Z,912.06
2019-03-17T03:50:51.833Z,912.06
2019-03-17T03:51:51.817Z,912.04
2019-03-17T03:52:51.776Z,912.01
2019-03-17T03:53:51.729Z,912.00
2019-03-17T03:54:51.837Z,912.00
2019-03-17T03:55:51.883Z,911.95
2019-03-17T03:56:51.669Z,911.94
2019-03-17T03:57:51.613Z,911.93
2019-03-17T03:58:51.572Z,911.94
2019-03-17T03:59:51.563Z,911.91
2019-03-17T04:00:51.513Z,911.93
2019-03-17T04:01:51.479Z,911.92
2019-03-17T04:02:51.448Z,911.96
2019-03-17T04:03:51.421Z,911.92
2019-03-17T04:04:51.368Z,911.93
2019-03-17T04:05:51.353Z,911.95
2019-03-17T04:06:51.306Z,911.95
2019-03-17T04:07:51.273Z,911.94
2019-03-17T04:08:51.249Z,911.90
2019-03-17T04:09:51.197Z,911.94
2019-03-17T04:10:51.185Z,911.94
2019-03-17T04:11:51.160Z,911.92
2019-03-17T04:12:51.096Z,911.97
2019-03-17T04:13:51.064Z,911.95
2019-03-17T04:14:51.050Z,911.97
2019-03-17T04:15:51.039Z,911.94
2019-03-17T04:16:51.009Z,911.90
2019-03-17T04:17:50.948Z,911.94
2019-03-17T04:18:50.929Z,911.95
2019-03-17T04:19:50.894Z,911.90
2019-03-17T04:20:50.850Z,911.90
2019-03-17T04:21:50.970Z,911.86
2019-03-17T04:22:50.784Z,911.86
2019-03-17T04:23:50.760Z,911.90
2019-03-17T04:24:50.715Z,911.90
2019-03-17T04:25:50.674Z,911.87
2019-03-17T04:26:50.657Z,911.88
2019-03-17T04:27:50.596Z,911.91
2019-03-17T04:28:50.578Z,911.89
2019-03-17T04:29:50.556Z,911.87
2019-03-17T04:30:50.501Z,911.88
2019-03-17T04:31:50.489Z,911.81
2019-03-17T04:32:50.498Z,911.78
2019-03-17T04:33:50.416Z,911.76
2019-03-17T04:34:50.413Z,911.74
2019-03-17T04:35:50.353Z,911.75
2019-03-17T04:36:50.324Z,911.75
2019-03-17T04:37:50.299Z,911.73
2019-03-17T04:38:50.475Z,911.80
2019-03-17T04:39:50.246Z,911.76
2019-03-17T04:40:50.217Z,911.79
2019-03-17T04:41:50.153Z,911.82
2019-03-17T04:42:50.148Z,911.86
2019-03-17T04:43:50.069Z,911.89
2019-03-17T04:44:50.064Z,911.89
2019-03-17T04:45:50.028Z,911.90
2019-03-17T04:46:50.015Z,911.86
2019-03-17T04:47:49.961Z,911.86
2019-03-17T04:48:50.087Z,911.82
2019-03-17T04:49:50.185Z,911.81
2019-03-17T04:50:49.863Z,911.80
2019-03-17T04:51:49.821Z,911.81
2019-03-17T04:52:49.798Z,911.77
2019-03-17T04:53:49.753Z,911.75
2019-03-17T04:54:49.703Z,911.74
2019-03-17T04:55:49.703Z,911.80
2019-03-17T04:56:49.678Z,911.77
2019-03-17T04:57:49.620Z,911.76
2019-03-17T04:58:49.609Z,911.76
2019-03-17T04:59:49.548Z,911.80
2019-03-17T05:00:49.524Z,911.77
2019-03-17T05:01:49.489Z,911.76
2019-03-17T05:02:49.463Z,911.73
2019-03-17T05:03:49.425Z,911.76
2019-03-17T05:04:49.399Z,911.71
2019-03-17T05:05:49.404Z,911.77
2019-03-17T05:06:53.012Z,911.78
2019-03-17T05:07:49.278Z,911.79
2019-03-17T05:08:49.250Z,911.80
2019-03-17T05:09:49.204Z,911.85
2019-03-17T05:10:49.229Z,911.89
2019-03-17T05:11:49.150Z,911.91
2019-03-17T05:12:49.120Z,911.95
2019-03-17T05:13:49.078Z,912.00
2019-03-17T05:14:49.054Z,911.99
2019-03-17T05:15:49.052Z,912.02
2019-03-17T05:16:48.980Z,911.99
2019-03-17T05:17:48.960Z,912.00
2019-03-17T05:18:48.936Z,912.01
2019-03-17T05:19:48.877Z,912.02
2019-03-17T05:20:48.853Z,911.98
2019-03-17T05:21:49.052Z,911.94
2019-03-17T05:22:48.792Z,911.93
2019-03-17T05:23:48.755Z,911.88
2019-03-17T05:24:48.729Z,911.89
2019-03-17T05:25:48.693Z,911.89
2019-03-17T05:26:48.700Z,911.95
2019-03-17T05:27:48.613Z,911.95
2019-03-17T05:28:48.589Z,911.98
2019-03-17T05:29:48.556Z,912.00
2019-03-17T05:30:48.525Z,912.02
2019-03-17T05:31:48.496Z,912.02
2019-03-17T05:32:48.462Z,912.03
2019-03-17T05:33:48.542Z,911.98
2019-03-17T05:34:48.391Z,911.93
2019-03-17T05:35:48.353Z,911.89
2019-03-17T05:36:48.330Z,911.90
2019-03-17T05:37:48.295Z,911.93
2019-03-17T05:38:48.245Z,911.96
2019-03-17T05:39:48.233Z,911.98
2019-03-17T05:40:48.190Z,911.96
2019-03-17T05:41:48.169Z,911.97
2019-03-17T05:42:48.111Z,911.97
2019-03-17T05:43:48.107Z,911.94
2019-03-17T05:44:48.056Z,911.94
2019-03-17T05:45:48.040Z,911.93
2019-03-17T05:46:47.975Z,911.92
2019-03-17T05:47:47.961Z,911.90
2019-03-17T05:48:48.091Z,911.89
2019-03-17T05:49:47.900Z,911.91
2019-03-17T05:50:47.880Z,911.86
2019-03-17T05:51:47.842Z,911.86
2019-03-17T05:52:47.779Z,911.87
2019-03-17T05:53:47.765Z,911.86
2019-03-17T05:54:47.975Z,911.85
2019-03-17T05:55:47.701Z,911.87
2019-03-17T05:56:47.655Z,911.86
2019-03-17T05:57:47.634Z,911.88
2019-03-17T05:58:47.583Z,911.85
2019-03-17T05:59:47.549Z,911.82
2019-03-17T06:00:47.535Z,911.80
2019-03-17T06:01:47.498Z,911.75
2019-03-17T06:02:47.452Z,911.76
2019-03-17T06:03:47.430Z,911.73
2019-03-17T06:04:47.404Z,911.67
2019-03-17T06:05:47.565Z,911.66
2019-03-17T06:06:47.335Z,911.61
2019-03-17T06:07:47.299Z,911.63
2019-03-17T06:08:47.263Z,911.66
2019-03-17T06:09:47.237Z,911.66
2019-03-17T06:10:47.448Z,911.66
2019-03-17T06:11:47.171Z,911.62
2019-03-17T06:12:47.142Z,911.63
2019-03-17T06:13:47.101Z,911.64
2019-03-17T06:14:47.070Z,911.63
2019-03-17T06:15:47.033Z,911.64
2019-03-17T06:16:46.997Z,911.65
2019-03-17T06:17:46.973Z,911.70
2019-03-17T06:18:46.936Z,911.66
2019-03-17T06:19:46.903Z,911.68
2019-03-17T06:20:46.916Z,911.70
2019-03-17T06:21:46.844Z,911.66
2019-03-17T06:22:46.807Z,911.67
2019-03-17T06:23:46.785Z,911.70
2019-03-17T06:24:46.738Z,911.66
2019-03-17T06:25:46.718Z,911.66
2019-03-17T06:26:46.661Z,911.63
2019-03-17T06:27:46.613Z,911.57
2019-03-17T06:28:46.612Z,911.56
2019-03-17T06:29:46.553Z,911.52
2019-03-17T06:30:46.533Z,911.49
2019-03-17T06:31:46.483Z,911.48
2019-03-17T06:32:46.448Z,911.40
2019-03-17T06:33:46.425Z,911.44
2019-03-17T06:34:46.383Z,911.40
2019-03-17T06:36:46.386Z,911.44
2019-03-17T06:37:46.323Z,911.46
2019-03-17T06:38:46.252Z,911.46
2019-03-17T06:39:46.225Z,911.48
2019-03-17T06:40:46.201Z,911.51
2019-03-17T06:41:46.159Z,911.51
2019-03-17T06:42:46.190Z,911.57
2019-03-17T06:43:46.090Z,911.56
2019-03-17T06:44:46.069Z,911.54
2019-03-17T06:45:46.040Z,911.55
2019-03-17T06:46:46.331Z,911.54
2019-03-17T06:47:45.977Z,911.52
2019-03-17T06:48:45.968Z,911.55
2019-03-17T06:49:45.893Z,911.52
2019-03-17T06:50:45.863Z,911.46
2019-03-17T06:51:45.828Z,911.44
2019-03-17T06:52:45.808Z,911.36
2019-03-17T06:53:55.708Z,911.31
2019-03-17T06:54:45.733Z,911.33
2019-03-17T06:55:45.697Z,911.29
2019-03-17T06:56:45.696Z,911.29
2019-03-17T06:57:45.665Z,911.28
2019-03-17T06:58:45.593Z,911.27
2019-03-17T06:59:45.575Z,911.28
2019-03-17T07:00:45.541Z,911.26
2019-03-17T07:01:45.485Z,911.21
2019-03-17T07:02:45.480Z,911.24
2019-03-17T07:03:45.425Z,911.22
2019-03-17T07:04:45.417Z,911.18
2019-03-17T07:05:45.383Z,911.18
2019-03-17T07:06:45.337Z,911.13
2019-03-17T07:07:45.304Z,911.11
2019-03-17T07:08:45.266Z,911.13
2019-03-17T07:09:45.243Z,911.13
2019-03-17T07:10:45.199Z,911.07
2019-03-17T07:11:45.181Z,911.06
2019-03-17T07:12:45.141Z,911.03
2019-03-17T07:13:45.109Z,911.04
2019-03-17T07:14:45.060Z,910.99
2019-03-17T07:15:45.024Z,910.99
2019-03-17T07:16:45.012Z,911.00
2019-03-17T07:17:44.977Z,910.98
2019-03-17T07:18:44.940Z,910.97
2019-03-17T07:19:44.906Z,910.99
2019-03-17T07:20:44.874Z,911.02
2019-03-17T07:21:44.850Z,911.03
2019-03-17T07:22:44.785Z,911.03
2019-03-17T07:23:44.794Z,911.11
2019-03-17T07:24:44.722Z,911.13
2019-03-17T07:25:44.727Z,911.11
2019-03-17T07:26:44.655Z,911.12
2019-03-17T07:27:44.630Z,911.16
2019-03-17T07:28:44.593Z,911.11
2019-03-17T07:29:44.570Z,911.17
2019-03-17T07:30:44.891Z,911.13
2019-03-17T07:31:44.521Z,911.15
2019-03-17T07:32:44.481Z,911.15
2019-03-17T07:33:44.432Z,911.14
2019-03-17T07:34:44.388Z,911.15
2019-03-17T07:35:46.389Z,911.14
2019-03-17T07:36:44.328Z,911.10
2019-03-17T07:37:55.912Z,911.10
2019-03-17T07:38:44.267Z,911.08
2019-03-17T07:39:44.259Z,911.03
2019-03-17T07:40:44.185Z,911.01
2019-03-17T07:41:44.171Z,911.05
2019-03-17T07:42:44.145Z,911.03
2019-03-17T07:43:44.109Z,911.03
2019-03-17T07:44:44.125Z,911.04
2019-03-17T07:45:44.039Z,911.07
2019-03-17T07:46:43.998Z,911.07
2019-03-17T07:47:43.966Z,911.10
2019-03-17T07:48:43.942Z,911.07
2019-03-17T07:49:43.898Z,911.12
2019-03-17T07:50:43.877Z,911.11
2019-03-17T07:51:43.909Z,911.11
2019-03-17T07:52:43.795Z,911.13
2019-03-17T07:53:43.778Z,911.12
2019-03-17T07:54:43.745Z,911.08
2019-03-17T07:55:43.713Z,911.09
2019-03-17T07:56:43.658Z,911.09
2019-03-17T07:57:43.625Z,911.03
2019-03-17T07:58:43.598Z,911.06
2019-03-17T07:59:43.573Z,911.00
2019-03-17T08:00:43.522Z,910.98
2019-03-17T08:01:43.503Z,910.96
2019-03-17T08:02:43.474Z,910.96
2019-03-17T08:03:43.439Z,910.97
2019-03-17T08:04:46.144Z,910.96
2019-03-17T08:05:43.402Z,910.95
2019-03-17T08:06:43.340Z,910.90
2019-03-17T08:07:43.310Z,910.93
2019-03-17T08:08:43.304Z,910.92
2019-03-17T08:09:43.223Z,910.90
2019-03-17T08:10:43.206Z,910.87
2019-03-17T08:11:43.174Z,910.86
2019-03-17T08:12:43.128Z,910.90
2019-03-17T08:13:43.100Z,910.86
2019-03-17T08:14:43.072Z,910.93
2019-03-17T08:15:43.041Z,910.95
2019-03-17T08:16:43.006Z,910.99
2019-03-17T08:17:43.202Z,911.01
2019-03-17T08:18:42.948Z,910.95
2019-03-17T08:19:42.903Z,911.00
2019-03-17T08:20:42.855Z,910.97
2019-03-17T08:21:43.383Z,910.96
2019-03-17T08:22:42.811Z,911.01
2019-03-17T08:23:42.919Z,910.99
2019-03-17T08:24:42.730Z,910.97
2019-03-17T08:25:42.698Z,910.99
2019-03-17T08:26:42.672Z,910.99
2019-03-17T08:27:42.618Z,910.99
2019-03-17T08:28:42.607Z,911.03
2019-03-17T08:30:52.627Z,911.07
2019-03-17T08:31:42.495Z,911.08
2019-03-17T08:32:42.463Z,911.07
2019-03-17T08:33:42.436Z,911.07
2019-03-17T08:34:42.405Z,911.04
2019-03-17T08:35:42.363Z,911.00
2019-03-17T08:36:42.327Z,911.00
2019-03-17T08:37:42.305Z,910.97
2019-03-17T08:38:42.271Z,910.93
2019-03-17T08:39:42.273Z,910.95
2019-03-17T08:40:42.197Z,910.96
2019-03-17T08:41:42.174Z,910.99
2019-03-17T08:42:42.117Z,910.99
2019-03-17T08:43:53.469Z,911.01
2019-03-17T08:44:42.221Z,911.07
2019-03-17T08:45:42.093Z,911.06
2019-03-17T08:46:41.998Z,911.07
2019-03-17T08:47:41.968Z,911.09
2019-03-17T08:48:41.927Z,911.08
2019-03-17T08:49:41.910Z,911.10
2019-03-17T08:50:42.047Z,911.09
2019-03-17T08:51:41.836Z,911.08
2019-03-17T08:52:41.802Z,911.08
2019-03-17T08:53:41.768Z,911.08
2019-03-17T08:54:41.760Z,911.05
2019-03-17T08:55:41.901Z,911.09
2019-03-17T08:56:41.673Z,911.12
2019-03-17T08:57:41.660Z,911.11
2019-03-17T08:58:41.600Z,911.14
2019-03-17T08:59:41.591Z,911.20
2019-03-17T09:00:41.527Z,911.18
2019-03-17T09:01:41.498Z,911.17
2019-03-17T09:02:41.469Z,911.25
2019-03-17T09:03:41.421Z,911.24
2019-03-17T09:04:41.407Z,911.26
2019-03-17T09:05:41.512Z,911.24
2019-03-17T09:06:41.312Z,911.26
2019-03-17T09:07:41.303Z,911.28
2019-03-17T09:08:41.290Z,911.27
2019-03-17T09:09:41.244Z,911.26
2019-03-17T09:10:41.180Z,911.31
2019-03-17T09:11:41.156Z,911.32
2019-03-17T09:12:41.137Z,911.34
2019-03-17T09:13:41.098Z,911.37
2019-03-17T09:14:41.099Z,911.41
2019-03-17T09:15:41.038Z,911.46
2019-03-17T09:16:41.138Z,911.47
2019-03-17T09:17:40.947Z,911.51
2019-03-17T09:18:40.965Z,911.55
2019-03-17T09:19:40.906Z,911.56
2019-03-17T09:20:40.848Z,911.62
2019-03-17T09:21:40.839Z,911.63
2019-03-17T09:22:41.084Z,911.66
2019-03-17T09:23:42.723Z,911.65
2019-03-17T09:24:40.793Z,911.65
2019-03-17T09:25:40.706Z,911.70
2019-03-17T09:26:40.646Z,911.71
2019-03-17T09:27:40.636Z,911.71
2019-03-17T09:28:40.595Z,911.71
2019-03-17T09:29:40.571Z,911.74
2019-03-17T09:30:40.554Z,911.75
2019-03-17T09:31:40.513Z,911.76
2019-03-17T09:32:40.460Z,911.76
2019-03-17T09:33:40.432Z,911.77
2019-03-17T09:34:40.388Z,911.79
2019-03-17T09:35:40.352Z,911.80
2019-03-17T09:36:40.320Z,911.80
2019-03-17T09:37:40.277Z,911.82
2019-03-17T09:38:47.247Z,911.85
2019-03-17T09:39:40.217Z,911.86
2019-03-17T09:40:40.177Z,911.86
2019-03-17T09:41:40.165Z,911.87
2019-03-17T09:42:40.134Z,911.87
2019-03-17T09:43:40.227Z,911.89
2019-03-17T09:44:40.061Z,911.88
2019-03-17T09:45:40.026Z,911.93
2019-03-17T09:46:39.974Z,911.94
2019-03-17T09:47:41.189Z,911.94
2019-03-17T09:48:39.907Z,911.95
2019-03-17T09:49:39.903Z,912.02
2019-03-17T09:50:39.841Z,912.02
2019-03-17T09:51:39.824Z,912.03
2019-03-17T09:52:39.793Z,912.03
2019-03-17T09:53:39.772Z,912.05
2019-03-17T09:54:39.733Z,912.01
2019-03-17T09:55:39.683Z,912.07
2019-03-17T09:56:39.655Z,912.09
2019-03-17T09:57:39.635Z,912.13
2019-03-17T09:58:39.618Z,912.18
2019-03-17T09:59:39.540Z,912.23
2019-03-17T10:00:39.728Z,912.25
2019-03-17T10:01:39.494Z,912.32
2019-03-17T10:02:39.455Z,912.37
2019-03-17T10:03:39.435Z,912.44
2019-03-17T10:04:39.398Z,912.50
2019-03-17T10:06:39.351Z,912.53
2019-03-17T10:07:39.284Z,912.55
2019-03-17T10:08:39.289Z,912.50
2019-03-17T10:09:39.223Z,912.49
2019-03-17T10:10:39.190Z,912.48
2019-03-17T10:11:39.349Z,912.47
2019-03-17T10:12:39.154Z,912.47
2019-03-17T10:13:39.085Z,912.47
2019-03-17T10:14:39.059Z,912.47
2019-03-17T10:15:39.005Z,912.48
2019-03-17T10:16:38.988Z,912.52
2019-03-17T10:17:39.157Z,912.53
2019-03-17T10:18:38.903Z,912.57
2019-03-17T10:19:38.897Z,912.62
2019-03-17T10:20:38.847Z,912.67
2019-03-17T10:21:38.823Z,912.71
2019-03-17T10:22:39.860Z,912.71
2019-03-17T10:23:39.099Z,912.73
2019-03-17T10:24:38.728Z,912.76
2019-03-17T10:25:38.708Z,912.75
2019-03-17T10:26:38.652Z,912.76
2019-03-17T10:27:38.624Z,912.74
2019-03-17T10:28:38.587Z,912.76
2019-03-17T10:29:38.553Z,912.75
2019-03-17T10:30:38.503Z,912.75
2019-03-17T10:31:38.487Z,912.75
2019-03-17T10:32:38.446Z,912.75
2019-03-17T10:33:38.409Z,912.77
2019-03-17T10:34:38.378Z,912.81
2019-03-17T10:35:38.349Z,912.84
2019-03-17T10:36:38.322Z,912.85
2019-03-17T10:37:38.283Z,912.89
2019-03-17T10:38:38.437Z,912.92
2019-03-17T10:39:38.198Z,912.97
2019-03-17T10:40:38.178Z,912.99
2019-03-17T10:41:38.356Z,912.98
2019-03-17T10:42:38.117Z,913.02
2019-03-17T10:43:38.327Z,913.01
2019-03-17T10:44:38.518Z,913.05
2019-03-17T10:45:38.040Z,913.09
2019-03-17T10:46:37.985Z,913.09
2019-03-17T10:47:37.970Z,913.14
2019-03-17T10:48:37.919Z,913.15
2019-03-17T10:49:37.884Z,913.17
2019-03-17T10:50:49.027Z,913.22
2019-03-17T10:51:37.823Z,913.22
2019-03-17T10:52:37.789Z,913.22
2019-03-17T10:53:37.750Z,913.25
2019-03-17T10:54:37.718Z,913.26
2019-03-17T10:55:37.701Z,913.29
2019-03-17T10:56:37.651Z,913.31
2019-03-17T10:57:37.619Z,913.30
2019-03-17T10:58:37.567Z,913.34
2019-03-17T10:59:37.764Z,913.36
2019-03-17T11:00:37.511Z,913.34
2019-03-17T11:01:37.491Z,913.40
2019-03-17T11:02:37.453Z,913.38
2019-03-17T11:03:37.417Z,913.41
2019-03-17T11:04:37.386Z,913.45
2019-03-17T11:05:37.349Z,913.46
2019-03-17T11:06:37.310Z,913.49
2019-03-17T11:07:37.287Z,913.51
2019-03-17T11:08:37.235Z,913.54
2019-03-17T11:09:37.233Z,913.54
2019-03-17T11:10:37.191Z,913.56
2019-03-17T11:11:37.347Z,913.52
2019-03-17T11:12:37.096Z,913.54
2019-03-17T11:13:37.079Z,913.55
2019-03-17T11:14:38.276Z,913.55
2019-03-17T11:15:37.010Z,913.57
2019-03-17T11:16:36.992Z,913.57
2019-03-17T11:17:37.081Z,913.58
2019-03-17T11:18:36.918Z,913.58
2019-03-17T11:19:36.887Z,913.59
2019-03-17T11:20:36.830Z,913.57
2019-03-17T11:21:36.821Z,913.56
2019-03-17T11:22:36.788Z,913.61
2019-03-17T11:23:36.731Z,913.56
2019-03-17T11:24:36.700Z,913.58
2019-03-17T11:25:36.725Z,913.54
2019-03-17T11:26:36.648Z,913.58
2019-03-17T11:27:36.620Z,913.59
2019-03-17T11:28:36.620Z,913.55
2019-03-17T11:29:36.558Z,913.56
2019-03-17T11:30:36.521Z,913.55
2019-03-17T11:31:36.502Z,913.52
2019-03-17T11:32:36.448Z,913.52
2019-03-17T11:33:36.400Z,913.50
2019-03-17T11:34:36.399Z,913.49
2019-03-17T11:35:36.337Z,913.54
2019-03-17T11:36:36.304Z,913.57
2019-03-17T11:37:36.292Z,913.59
2019-03-17T11:38:36.256Z,913.65
2019-03-17T11:40:36.251Z,913.67
2019-03-17T11:41:36.159Z,913.71
2019-03-17T11:42:36.207Z,913.73
2019-03-17T11:43:36.085Z,913.81
2019-03-17T11:44:36.070Z,913.77
2019-03-17T11:45:36.025Z,913.80
2019-03-17T11:46:35.981Z,913.78
2019-03-17T11:47:35.974Z,913.85
2019-03-17T11:48:35.929Z,913.83
2019-03-17T11:49:35.910Z,913.82
2019-03-17T11:50:35.878Z,913.79
2019-03-17T11:51:35.809Z,913.78
2019-03-17T11:52:35.781Z,913.70
2019-03-17T11:53:35.747Z,913.71
2019-03-17T11:54:35.748Z,913.68
2019-03-17T11:55:35.718Z,913.66
2019-03-17T11:56:35.669Z,913.62
2019-03-17T11:57:35.625Z,913.64
2019-03-17T11:58:35.595Z,913.65
2019-03-17T11:59:35.649Z,913.63
2019-03-17T12:00:35.684Z,913.63
2019-03-17T12:01:35.508Z,913.66
2019-03-17T12:02:35.454Z,913.69
2019-03-17T12:03:35.454Z,913.68
2019-03-17T12:04:35.384Z,913.74
2019-03-17T12:05:35.370Z,913.74
2019-03-17T12:06:35.337Z,913.76
2019-03-17T12:07:35.305Z,913.80
2019-03-17T12:08:35.275Z,913.75
2019-03-17T12:09:35.240Z,913.79
2019-03-17T12:10:35.205Z,913.75
2019-03-17T12:11:35.231Z,913.76
2019-03-17T12:12:35.160Z,913.75
2019-03-17T12:13:35.094Z,913.75
2019-03-17T12:14:35.090Z,913.79
2019-03-17T12:15:35.058Z,913.79
2019-03-17T12:16:34.994Z,913.79
2019-03-17T12:17:35.045Z,913.77
2019-03-17T12:18:34.964Z,913.82
2019-03-17T12:19:34.923Z,913.86
2019-03-17T12:20:34.884Z,913.87
2019-03-17T12:21:34.848Z,913.89
2019-03-17T12:22:34.912Z,913.92
2019-03-17T12:23:34.803Z,913.93
2019-03-17T12:24:34.750Z,913.93
2019-03-17T12:25:34.695Z,913.95
2019-03-17T12:26:34.676Z,913.99
2019-03-17T12:27:34.646Z,913.97
2019-03-17T12:28:34.622Z,913.99
2019-03-17T12:29:34.600Z,913.99
2019-03-17T12:30:34.557Z,914.03
2019-03-17T12:31:34.528Z,914.08
2019-03-17T12:32:34.491Z,914.08
2019-03-17T12:33:34.480Z,914.07
2019-03-17T12:34:34.434Z,914.12